sensor_id;sensor_type;location;lat;lon;timestamp;temperature;humidity
22734;DHT22;11534;51.994;5.692;2023-10-31T00:02:22;10.90;99.90
22734;DHT22;11534;51.994;5.692;2023-10-31T00:04:47;10.90;99.90
22734;DHT22;11534;51.994;5.692;2023-10-31T00:07:13;10.90;99.90
22734;DHT22;11534;51.994;5.692;2023-10-31T00:09:39;10.90;99.90
22734;DHT22;11534;51.994;5.692;2023-10-31T00:12:05;10.90;99.90
22734;DHT22;11534;51.994;5.692;2023-10-31T00:14:31;10.80;99.90
22734;DHT22;11534;51.994;5.692;2023-10-31T00:16:58;10.90;99.90
22734;DHT22;11534;51.994;5.692;2023-10-31T00:19:23;10.90;99.90
22734;DHT22;11534;51.994;5.692;2023-10-31T00:21:49;10.90;99.90
22734;DHT22;11534;51.994;5.692;2023-10-31T00:24:15;10.90;99.90
22734;DHT22;11534;51.994;5.692;2023-10-31T00:26:41;10.90;99.90
22734;DHT22;11534;51.994;5.692;2023-10-31T00:29:06;10.80;99.90
22734;DHT22;11534;51.994;5.692;2023-10-31T00:31:32;10.80;99.90
22734;DHT22;11534;51.994;5.692;2023-10-31T00:34:00;10.70;99.90
22734;DHT22;11534;51.994;5.692;2023-10-31T00:36:26;10.70;99.90
22734;DHT22;11534;51.994;5.692;2023-10-31T00:38:52;10.70;99.90
22734;DHT22;11534;51.994;5.692;2023-10-31T00:41:18;10.70;99.90
22734;DHT22;11534;51.994;5.692;2023-10-31T00:43:43;10.70;99.90
22734;DHT22;11534;51.994;5.692;2023-10-31T00:46:09;10.70;99.90
22734;DHT22;11534;51.994;5.692;2023-10-31T00:48:35;10.70;99.90
22734;DHT22;11534;51.994;5.692;2023-10-31T00:51:04;10.70;99.90
22734;DHT22;11534;51.994;5.692;2023-10-31T00:53:31;10.70;99.90
22734;DHT22;11534;51.994;5.692;2023-10-31T00:55:57;10.70;99.90
22734;DHT22;11534;51.994;5.692;2023-10-31T00:58:23;10.70;99.90
22734;DHT22;11534;51.994;5.692;2023-10-31T01:00:49;10.70;99.90
22734;DHT22;11534;51.994;5.692;2023-10-31T01:03:14;10.70;99.90
22734;DHT22;11534;51.994;5.692;2023-10-31T01:05:40;10.70;99.90
22734;DHT22;11534;51.994;5.692;2023-10-31T01:08:06;10.70;99.90
22734;DHT22;11534;51.994;5.692;2023-10-31T01:10:31;10.80;99.90
22734;DHT22;11534;51.994;5.692;2023-10-31T01:12:57;10.80;99.90
22734;DHT22;11534;51.994;5.692;2023-10-31T01:15:23;10.80;99.90
22734;DHT22;11534;51.994;5.692;2023-10-31T01:17:48;10.70;99.90
22734;DHT22;11534;51.994;5.692;2023-10-31T01:20:14;10.80;99.90
22734;DHT22;11534;51.994;5.692;2023-10-31T01:22:40;10.70;99.90
22734;DHT22;11534;51.994;5.692;2023-10-31T01:25:06;10.70;99.90
22734;DHT22;11534;51.994;5.692;2023-10-31T01:27:31;10.70;99.90
22734;DHT22;11534;51.994;5.692;2023-10-31T01:29:57;10.70;99.90
22734;DHT22;11534;51.994;5.692;2023-10-31T01:32:23;10.70;99.90
22734;DHT22;11534;51.994;5.692;2023-10-31T01:34:48;10.70;99.90
22734;DHT22;11534;51.994;5.692;2023-10-31T01:37:14;10.80;99.90
22734;DHT22;11534;51.994;5.692;2023-10-31T01:39:41;10.80;99.90
22734;DHT22;11534;51.994;5.692;2023-10-31T01:42:06;10.80;99.90
22734;DHT22;11534;51.994;5.692;2023-10-31T01:44:32;10.80;99.90
22734;DHT22;11534;51.994;5.692;2023-10-31T01:46:58;10.80;99.90
22734;DHT22;11534;51.994;5.692;2023-10-31T01:49:24;10.80;99.90
22734;DHT22;11534;51.994;5.692;2023-10-31T01:51:50;10.80;99.90
22734;DHT22;11534;51.994;5.692;2023-10-31T01:54:15;10.70;99.90
22734;DHT22;11534;51.994;5.692;2023-10-31T01:56:42;10.80;99.90
22734;DHT22;11534;51.994;5.692;2023-10-31T01:59:08;10.80;99.90
22734;DHT22;11534;51.994;5.692;2023-10-31T02:01:38;10.80;99.90
22734;DHT22;11534;51.994;5.692;2023-10-31T02:04:04;10.80;99.90
22734;DHT22;11534;51.994;5.692;2023-10-31T02:06:30;10.80;99.90
22734;DHT22;11534;51.994;5.692;2023-10-31T02:08:56;10.80;99.90
22734;DHT22;11534;51.994;5.692;2023-10-31T02:11:22;10.80;99.90
22734;DHT22;11534;51.994;5.692;2023-10-31T02:13:48;10.80;99.90
22734;DHT22;11534;51.994;5.692;2023-10-31T02:16:15;10.80;99.90
22734;DHT22;11534;51.994;5.692;2023-10-31T02:18:41;10.80;99.90
22734;DHT22;11534;51.994;5.692;2023-10-31T02:21:06;10.70;99.90
22734;DHT22;11534;51.994;5.692;2023-10-31T02:23:32;10.70;99.90
22734;DHT22;11534;51.994;5.692;2023-10-31T02:25:57;10.80;99.90
22734;DHT22;11534;51.994;5.692;2023-10-31T02:28:23;10.80;99.90
22734;DHT22;11534;51.994;5.692;2023-10-31T02:30:53;10.80;99.90
22734;DHT22;11534;51.994;5.692;2023-10-31T02:33:20;10.80;99.90
22734;DHT22;11534;51.994;5.692;2023-10-31T02:35:46;10.80;99.90
22734;DHT22;11534;51.994;5.692;2023-10-31T02:38:11;10.80;99.90
22734;DHT22;11534;51.994;5.692;2023-10-31T02:40:37;10.80;99.90
22734;DHT22;11534;51.994;5.692;2023-10-31T02:43:03;10.80;99.90
22734;DHT22;11534;51.994;5.692;2023-10-31T02:45:28;10.80;99.90
22734;DHT22;11534;51.994;5.692;2023-10-31T02:47:55;10.80;99.90
22734;DHT22;11534;51.994;5.692;2023-10-31T02:50:20;10.80;99.90
22734;DHT22;11534;51.994;5.692;2023-10-31T02:52:46;10.80;99.90
22734;DHT22;11534;51.994;5.692;2023-10-31T02:55:12;10.80;99.90
22734;DHT22;11534;51.994;5.692;2023-10-31T02:57:37;10.80;99.90
22734;DHT22;11534;51.994;5.692;2023-10-31T03:00:03;10.80;99.90
22734;DHT22;11534;51.994;5.692;2023-10-31T03:02:29;10.80;99.90
22734;DHT22;11534;51.994;5.692;2023-10-31T03:04:55;10.90;99.90
22734;DHT22;11534;51.994;5.692;2023-10-31T03:07:21;10.80;99.90
22734;DHT22;11534;51.994;5.692;2023-10-31T03:09:46;10.80;99.90
22734;DHT22;11534;51.994;5.692;2023-10-31T03:12:12;10.80;99.90
22734;DHT22;11534;51.994;5.692;2023-10-31T03:14:38;10.80;99.90
22734;DHT22;11534;51.994;5.692;2023-10-31T03:17:03;10.80;99.90
22734;DHT22;11534;51.994;5.692;2023-10-31T03:19:29;10.80;99.90
22734;DHT22;11534;51.994;5.692;2023-10-31T03:21:55;10.80;99.90
22734;DHT22;11534;51.994;5.692;2023-10-31T03:24:20;10.80;99.90
22734;DHT22;11534;51.994;5.692;2023-10-31T03:26:46;10.80;99.90
22734;DHT22;11534;51.994;5.692;2023-10-31T03:29:12;10.70;99.90
22734;DHT22;11534;51.994;5.692;2023-10-31T03:31:38;10.80;99.90
22734;DHT22;11534;51.994;5.692;2023-10-31T03:34:03;10.80;99.90
22734;DHT22;11534;51.994;5.692;2023-10-31T03:36:29;10.80;99.90
22734;DHT22;11534;51.994;5.692;2023-10-31T03:38:56;10.70;99.90
22734;DHT22;11534;51.994;5.692;2023-10-31T03:41:21;10.80;99.90
22734;DHT22;11534;51.994;5.692;2023-10-31T03:43:47;10.70;99.90
22734;DHT22;11534;51.994;5.692;2023-10-31T03:46:13;10.80;99.90
22734;DHT22;11534;51.994;5.692;2023-10-31T03:48:38;10.80;99.90
22734;DHT22;11534;51.994;5.692;2023-10-31T03:51:04;10.80;99.90
22734;DHT22;11534;51.994;5.692;2023-10-31T03:53:30;10.80;99.90
22734;DHT22;11534;51.994;5.692;2023-10-31T03:55:55;10.80;99.90
22734;DHT22;11534;51.994;5.692;2023-10-31T03:58:21;10.80;99.90
22734;DHT22;11534;51.994;5.692;2023-10-31T04:00:47;10.80;99.90
22734;DHT22;11534;51.994;5.692;2023-10-31T04:03:12;10.80;99.90
22734;DHT22;11534;51.994;5.692;2023-10-31T04:05:38;10.80;99.90
22734;DHT22;11534;51.994;5.692;2023-10-31T04:08:04;10.80;99.90
22734;DHT22;11534;51.994;5.692;2023-10-31T04:10:30;10.80;99.90
22734;DHT22;11534;51.994;5.692;2023-10-31T04:12:55;10.70;99.90
22734;DHT22;11534;51.994;5.692;2023-10-31T04:15:21;10.80;99.90
22734;DHT22;11534;51.994;5.692;2023-10-31T04:17:47;10.70;99.90
22734;DHT22;11534;51.994;5.692;2023-10-31T04:20:12;10.70;99.90
22734;DHT22;11534;51.994;5.692;2023-10-31T04:22:38;10.70;99.90
22734;DHT22;11534;51.994;5.692;2023-10-31T04:25:04;10.70;99.90
22734;DHT22;11534;51.994;5.692;2023-10-31T04:27:30;10.70;99.90
22734;DHT22;11534;51.994;5.692;2023-10-31T04:29:56;10.70;99.90
22734;DHT22;11534;51.994;5.692;2023-10-31T04:32:21;10.70;99.90
22734;DHT22;11534;51.994;5.692;2023-10-31T04:34:47;10.70;99.90
22734;DHT22;11534;51.994;5.692;2023-10-31T04:37:13;10.70;99.90
22734;DHT22;11534;51.994;5.692;2023-10-31T04:39:38;10.70;99.90
22734;DHT22;11534;51.994;5.692;2023-10-31T04:42:04;10.70;99.90
22734;DHT22;11534;51.994;5.692;2023-10-31T04:44:29;10.70;99.90
22734;DHT22;11534;51.994;5.692;2023-10-31T04:46:55;10.70;99.90
22734;DHT22;11534;51.994;5.692;2023-10-31T04:49:21;10.70;99.90
22734;DHT22;11534;51.994;5.692;2023-10-31T04:51:48;10.70;99.90
22734;DHT22;11534;51.994;5.692;2023-10-31T04:54:14;10.70;99.90
22734;DHT22;11534;51.994;5.692;2023-10-31T04:56:39;10.70;99.90
22734;DHT22;11534;51.994;5.692;2023-10-31T04:59:05;10.70;99.90
22734;DHT22;11534;51.994;5.692;2023-10-31T05:01:31;10.70;99.90
22734;DHT22;11534;51.994;5.692;2023-10-31T05:03:56;10.70;99.90
22734;DHT22;11534;51.994;5.692;2023-10-31T05:06:22;10.70;99.90
22734;DHT22;11534;51.994;5.692;2023-10-31T05:08:49;10.70;99.90
22734;DHT22;11534;51.994;5.692;2023-10-31T05:11:17;10.70;99.90
22734;DHT22;11534;51.994;5.692;2023-10-31T05:13:44;10.60;99.90
22734;DHT22;11534;51.994;5.692;2023-10-31T05:16:10;10.70;99.90
22734;DHT22;11534;51.994;5.692;2023-10-31T05:18:37;10.70;99.90
22734;DHT22;11534;51.994;5.692;2023-10-31T05:21:04;10.60;99.90
22734;DHT22;11534;51.994;5.692;2023-10-31T05:23:30;10.60;99.90
22734;DHT22;11534;51.994;5.692;2023-10-31T05:25:55;10.70;99.90
22734;DHT22;11534;51.994;5.692;2023-10-31T05:28:21;10.70;99.90
22734;DHT22;11534;51.994;5.692;2023-10-31T05:30:47;10.70;99.90
22734;DHT22;11534;51.994;5.692;2023-10-31T05:33:15;10.70;99.90
22734;DHT22;11534;51.994;5.692;2023-10-31T05:35:41;10.70;99.90
22734;DHT22;11534;51.994;5.692;2023-10-31T05:38:06;10.70;99.90
22734;DHT22;11534;51.994;5.692;2023-10-31T05:40:32;10.70;99.90
22734;DHT22;11534;51.994;5.692;2023-10-31T05:43:01;10.60;99.90
22734;DHT22;11534;51.994;5.692;2023-10-31T05:45:26;10.60;99.90
22734;DHT22;11534;51.994;5.692;2023-10-31T05:47:52;10.60;99.90
22734;DHT22;11534;51.994;5.692;2023-10-31T05:50:17;10.60;99.90
22734;DHT22;11534;51.994;5.692;2023-10-31T05:52:43;10.60;99.90
22734;DHT22;11534;51.994;5.692;2023-10-31T05:55:09;10.60;99.90
22734;DHT22;11534;51.994;5.692;2023-10-31T05:57:34;10.60;99.90
22734;DHT22;11534;51.994;5.692;2023-10-31T06:00:00;10.60;99.90
22734;DHT22;11534;51.994;5.692;2023-10-31T06:02:26;10.60;99.90
22734;DHT22;11534;51.994;5.692;2023-10-31T06:04:51;10.50;99.90
22734;DHT22;11534;51.994;5.692;2023-10-31T06:07:17;10.50;99.90
22734;DHT22;11534;51.994;5.692;2023-10-31T06:09:43;10.50;99.90
22734;DHT22;11534;51.994;5.692;2023-10-31T06:12:09;10.50;99.90
22734;DHT22;11534;51.994;5.692;2023-10-31T06:14:34;10.50;99.90
22734;DHT22;11534;51.994;5.692;2023-10-31T06:17:00;10.50;99.90
22734;DHT22;11534;51.994;5.692;2023-10-31T06:19:26;10.40;99.90
22734;DHT22;11534;51.994;5.692;2023-10-31T06:21:52;10.40;99.90
22734;DHT22;11534;51.994;5.692;2023-10-31T06:24:18;10.40;99.90
22734;DHT22;11534;51.994;5.692;2023-10-31T06:26:43;10.40;99.90
22734;DHT22;11534;51.994;5.692;2023-10-31T06:29:09;10.40;99.90
22734;DHT22;11534;51.994;5.692;2023-10-31T06:47:07;10.40;99.90
22734;DHT22;11534;51.994;5.692;2023-10-31T06:49:33;10.40;99.90
22734;DHT22;11534;51.994;5.692;2023-10-31T06:51:59;10.40;99.90
22734;DHT22;11534;51.994;5.692;2023-10-31T06:54:24;10.40;99.90
22734;DHT22;11534;51.994;5.692;2023-10-31T06:56:50;10.40;99.90
22734;DHT22;11534;51.994;5.692;2023-10-31T06:59:17;10.40;99.90
22734;DHT22;11534;51.994;5.692;2023-10-31T07:01:43;10.40;99.90
22734;DHT22;11534;51.994;5.692;2023-10-31T07:04:10;10.40;99.90
22734;DHT22;11534;51.994;5.692;2023-10-31T07:06:36;10.40;99.90
22734;DHT22;11534;51.994;5.692;2023-10-31T07:09:02;10.50;99.90
22734;DHT22;11534;51.994;5.692;2023-10-31T07:11:30;10.40;99.90
22734;DHT22;11534;51.994;5.692;2023-10-31T07:14:00;10.40;99.90
22734;DHT22;11534;51.994;5.692;2023-10-31T07:16:26;10.40;99.90
22734;DHT22;11534;51.994;5.692;2023-10-31T07:18:52;10.40;99.90
22734;DHT22;11534;51.994;5.692;2023-10-31T07:21:18;10.40;99.90
22734;DHT22;11534;51.994;5.692;2023-10-31T07:23:43;10.40;99.90
22734;DHT22;11534;51.994;5.692;2023-10-31T07:26:10;10.50;99.90
22734;DHT22;11534;51.994;5.692;2023-10-31T07:28:36;10.40;99.90
22734;DHT22;11534;51.994;5.692;2023-10-31T07:31:04;10.40;99.90
22734;DHT22;11534;51.994;5.692;2023-10-31T07:33:30;10.40;99.90
22734;DHT22;11534;51.994;5.692;2023-10-31T07:35:56;10.40;99.90
22734;DHT22;11534;51.994;5.692;2023-10-31T07:38:22;10.40;99.90
22734;DHT22;11534;51.994;5.692;2023-10-31T07:40:48;10.40;99.90
22734;DHT22;11534;51.994;5.692;2023-10-31T07:43:15;10.40;99.90
22734;DHT22;11534;51.994;5.692;2023-10-31T07:45:40;10.40;99.90
22734;DHT22;11534;51.994;5.692;2023-10-31T07:48:07;10.40;99.90
22734;DHT22;11534;51.994;5.692;2023-10-31T07:50:32;10.40;99.90
22734;DHT22;11534;51.994;5.692;2023-10-31T07:52:58;10.50;99.90
22734;DHT22;11534;51.994;5.692;2023-10-31T07:55:24;10.50;99.90
22734;DHT22;11534;51.994;5.692;2023-10-31T07:57:51;10.50;99.90
22734;DHT22;11534;51.994;5.692;2023-10-31T08:00:16;10.50;99.90
22734;DHT22;11534;51.994;5.692;2023-10-31T08:02:42;10.50;99.90
22734;DHT22;11534;51.994;5.692;2023-10-31T08:05:10;10.60;99.90
22734;DHT22;11534;51.994;5.692;2023-10-31T08:07:36;10.60;99.90
22734;DHT22;11534;51.994;5.692;2023-10-31T08:10:04;10.70;99.90
22734;DHT22;11534;51.994;5.692;2023-10-31T08:12:30;10.80;99.90
22734;DHT22;11534;51.994;5.692;2023-10-31T08:14:55;10.80;99.90
22734;DHT22;11534;51.994;5.692;2023-10-31T08:17:21;10.90;99.90
22734;DHT22;11534;51.994;5.692;2023-10-31T08:19:47;10.90;99.90
22734;DHT22;11534;51.994;5.692;2023-10-31T08:22:15;11.00;99.90
22734;DHT22;11534;51.994;5.692;2023-10-31T08:24:41;11.00;99.90
22734;DHT22;11534;51.994;5.692;2023-10-31T08:27:07;11.10;99.90
22734;DHT22;11534;51.994;5.692;2023-10-31T08:29:33;11.10;99.90
22734;DHT22;11534;51.994;5.692;2023-10-31T08:31:59;11.10;99.90
22734;DHT22;11534;51.994;5.692;2023-10-31T08:34:24;11.10;99.90
22734;DHT22;11534;51.994;5.692;2023-10-31T08:36:51;11.10;99.90
22734;DHT22;11534;51.994;5.692;2023-10-31T08:39:18;11.10;99.90
22734;DHT22;11534;51.994;5.692;2023-10-31T08:41:55;11.20;99.90
22734;DHT22;11534;51.994;5.692;2023-10-31T08:44:23;11.20;99.90
22734;DHT22;11534;51.994;5.692;2023-10-31T08:46:50;11.20;99.90
22734;DHT22;11534;51.994;5.692;2023-10-31T08:49:16;11.20;99.90
22734;DHT22;11534;51.994;5.692;2023-10-31T08:51:45;11.20;99.90
22734;DHT22;11534;51.994;5.692;2023-10-31T08:54:11;11.20;99.90
22734;DHT22;11534;51.994;5.692;2023-10-31T08:56:37;11.30;99.90
22734;DHT22;11534;51.994;5.692;2023-10-31T08:59:03;11.40;99.90
22734;DHT22;11534;51.994;5.692;2023-10-31T09:01:29;11.50;99.90
22734;DHT22;11534;51.994;5.692;2023-10-31T09:03:54;11.60;99.90
22734;DHT22;11534;51.994;5.692;2023-10-31T09:06:20;11.60;99.90
22734;DHT22;11534;51.994;5.692;2023-10-31T09:08:46;11.70;99.90
22734;DHT22;11534;51.994;5.692;2023-10-31T09:11:12;11.70;99.90
22734;DHT22;11534;51.994;5.692;2023-10-31T09:13:37;11.80;99.90
22734;DHT22;11534;51.994;5.692;2023-10-31T09:16:03;11.80;99.90
22734;DHT22;11534;51.994;5.692;2023-10-31T09:18:29;11.80;99.90
22734;DHT22;11534;51.994;5.692;2023-10-31T09:20:55;11.80;99.90
22734;DHT22;11534;51.994;5.692;2023-10-31T09:23:20;11.90;99.90
22734;DHT22;11534;51.994;5.692;2023-10-31T09:25:46;11.90;99.90
22734;DHT22;11534;51.994;5.692;2023-10-31T09:28:12;12.00;99.90
22734;DHT22;11534;51.994;5.692;2023-10-31T09:30:38;12.00;99.90
22734;DHT22;11534;51.994;5.692;2023-10-31T09:33:03;12.10;99.90
22734;DHT22;11534;51.994;5.692;2023-10-31T09:35:29;12.20;99.90
22734;DHT22;11534;51.994;5.692;2023-10-31T09:37:55;12.30;99.90
22734;DHT22;11534;51.994;5.692;2023-10-31T09:40:21;12.30;99.90
22734;DHT22;11534;51.994;5.692;2023-10-31T09:42:48;12.30;99.90
22734;DHT22;11534;51.994;5.692;2023-10-31T09:45:14;12.50;99.90
22734;DHT22;11534;51.994;5.692;2023-10-31T09:47:42;12.70;99.90
22734;DHT22;11534;51.994;5.692;2023-10-31T09:50:09;12.80;99.90
22734;DHT22;11534;51.994;5.692;2023-10-31T09:52:36;13.10;99.90
22734;DHT22;11534;51.994;5.692;2023-10-31T09:55:02;13.20;99.90
22734;DHT22;11534;51.994;5.692;2023-10-31T09:57:29;13.20;99.90
22734;DHT22;11534;51.994;5.692;2023-10-31T09:59:55;13.20;99.90
22734;DHT22;11534;51.994;5.692;2023-10-31T10:02:20;13.40;99.90
22734;DHT22;11534;51.994;5.692;2023-10-31T10:04:48;13.60;99.90
22734;DHT22;11534;51.994;5.692;2023-10-31T10:07:16;13.80;99.90
22734;DHT22;11534;51.994;5.692;2023-10-31T10:09:43;14.10;99.90
22734;DHT22;11534;51.994;5.692;2023-10-31T10:12:11;14.30;99.90
22734;DHT22;11534;51.994;5.692;2023-10-31T10:14:38;14.40;99.90
22734;DHT22;11534;51.994;5.692;2023-10-31T10:17:24;14.40;99.90
22734;DHT22;11534;51.994;5.692;2023-10-31T10:20:10;14.20;99.90
22734;DHT22;11534;51.994;5.692;2023-10-31T10:22:40;14.10;99.90
22734;DHT22;11534;51.994;5.692;2023-10-31T10:25:14;14.00;99.90
22734;DHT22;11534;51.994;5.692;2023-10-31T10:27:44;14.20;99.90
22734;DHT22;11534;51.994;5.692;2023-10-31T10:30:11;14.40;99.90
22734;DHT22;11534;51.994;5.692;2023-10-31T10:32:38;14.40;99.90
22734;DHT22;11534;51.994;5.692;2023-10-31T10:35:04;14.50;99.90
22734;DHT22;11534;51.994;5.692;2023-10-31T10:37:30;14.40;99.90
22734;DHT22;11534;51.994;5.692;2023-10-31T10:39:57;14.50;99.90
22734;DHT22;11534;51.994;5.692;2023-10-31T10:42:54;14.70;99.90
22734;DHT22;11534;51.994;5.692;2023-10-31T10:45:23;15.00;99.90
22734;DHT22;11534;51.994;5.692;2023-10-31T10:47:50;14.90;99.90
22734;DHT22;11534;51.994;5.692;2023-10-31T10:50:21;14.80;99.90
22734;DHT22;11534;51.994;5.692;2023-10-31T10:53:14;14.60;99.90
22734;DHT22;11534;51.994;5.692;2023-10-31T10:55:47;14.40;99.90
22734;DHT22;11534;51.994;5.692;2023-10-31T10:58:38;14.20;99.90
22734;DHT22;11534;51.994;5.692;2023-10-31T11:01:05;14.00;99.90
22734;DHT22;11534;51.994;5.692;2023-10-31T11:03:31;13.90;99.90
22734;DHT22;11534;51.994;5.692;2023-10-31T11:05:58;14.00;99.90
22734;DHT22;11534;51.994;5.692;2023-10-31T11:08:24;14.10;99.90
22734;DHT22;11534;51.994;5.692;2023-10-31T11:10:54;14.10;99.90
22734;DHT22;11534;51.994;5.692;2023-10-31T11:13:22;14.00;99.90
22734;DHT22;11534;51.994;5.692;2023-10-31T11:15:53;14.20;99.90
22734;DHT22;11534;51.994;5.692;2023-10-31T11:18:20;14.40;99.90
22734;DHT22;11534;51.994;5.692;2023-10-31T11:20:46;14.10;99.90
22734;DHT22;11534;51.994;5.692;2023-10-31T11:23:13;14.00;99.90
22734;DHT22;11534;51.994;5.692;2023-10-31T11:25:44;14.00;99.90
22734;DHT22;11534;51.994;5.692;2023-10-31T11:28:16;14.00;99.90
22734;DHT22;11534;51.994;5.692;2023-10-31T11:30:43;13.80;99.90
22734;DHT22;11534;51.994;5.692;2023-10-31T11:33:18;13.60;99.90
22734;DHT22;11534;51.994;5.692;2023-10-31T11:35:49;13.50;99.90
22734;DHT22;11534;51.994;5.692;2023-10-31T11:38:15;13.50;99.90
22734;DHT22;11534;51.994;5.692;2023-10-31T11:43:11;13.80;99.90
22734;DHT22;11534;51.994;5.692;2023-10-31T11:45:41;14.10;99.90
22734;DHT22;11534;51.994;5.692;2023-10-31T11:48:13;14.20;99.90
22734;DHT22;11534;51.994;5.692;2023-10-31T11:50:40;14.20;99.90
22734;DHT22;11534;51.994;5.692;2023-10-31T11:55:38;13.90;99.90
22734;DHT22;11534;51.994;5.692;2023-10-31T12:00:47;13.80;99.90
22734;DHT22;11534;51.994;5.692;2023-10-31T12:03:21;13.70;99.90
22734;DHT22;11534;51.994;5.692;2023-10-31T12:05:58;13.80;99.90
22734;DHT22;11534;51.994;5.692;2023-10-31T12:08:43;13.90;99.90
22734;DHT22;11534;51.994;5.692;2023-10-31T12:14:02;14.00;99.90
22734;DHT22;11534;51.994;5.692;2023-10-31T12:16:32;14.00;99.90
22734;DHT22;11534;51.994;5.692;2023-10-31T12:19:03;13.80;99.90
22734;DHT22;11534;51.994;5.692;2023-10-31T12:21:41;13.70;99.90
22734;DHT22;11534;51.994;5.692;2023-10-31T12:24:09;13.70;99.90
22734;DHT22;11534;51.994;5.692;2023-10-31T12:26:35;13.70;99.90
22734;DHT22;11534;51.994;5.692;2023-10-31T12:29:12;13.60;99.90
22734;DHT22;11534;51.994;5.692;2023-10-31T12:31:53;13.50;99.90
22734;DHT22;11534;51.994;5.692;2023-10-31T12:34:24;13.30;99.90
22734;DHT22;11534;51.994;5.692;2023-10-31T12:36:54;13.30;99.90
22734;DHT22;11534;51.994;5.692;2023-10-31T12:39:41;13.20;99.90
22734;DHT22;11534;51.994;5.692;2023-10-31T12:42:06;13.20;99.90
22734;DHT22;11534;51.994;5.692;2023-10-31T12:44:32;13.10;99.90
22734;DHT22;11534;51.994;5.692;2023-10-31T12:46:58;13.20;99.90
22734;DHT22;11534;51.994;5.692;2023-10-31T12:49:25;13.30;99.90
22734;DHT22;11534;51.994;5.692;2023-10-31T12:52:02;13.20;99.90
22734;DHT22;11534;51.994;5.692;2023-10-31T12:54:33;13.20;99.90
22734;DHT22;11534;51.994;5.692;2023-10-31T12:57:09;13.10;99.90
22734;DHT22;11534;51.994;5.692;2023-10-31T12:59:37;13.00;99.90
22734;DHT22;11534;51.994;5.692;2023-10-31T13:02:06;13.00;99.90
22734;DHT22;11534;51.994;5.692;2023-10-31T13:04:33;13.10;99.90
22734;DHT22;11534;51.994;5.692;2023-10-31T13:07:00;13.10;99.90
22734;DHT22;11534;51.994;5.692;2023-10-31T13:09:32;13.20;99.90
22734;DHT22;11534;51.994;5.692;2023-10-31T13:12:00;13.20;99.90
22734;DHT22;11534;51.994;5.692;2023-10-31T13:14:26;13.30;99.90
22734;DHT22;11534;51.994;5.692;2023-10-31T13:16:51;13.30;99.90
22734;DHT22;11534;51.994;5.692;2023-10-31T13:19:17;13.30;99.90
22734;DHT22;11534;51.994;5.692;2023-10-31T13:21:43;13.30;99.90
22734;DHT22;11534;51.994;5.692;2023-10-31T13:24:08;13.30;99.90
22734;DHT22;11534;51.994;5.692;2023-10-31T13:26:35;13.30;99.90
22734;DHT22;11534;51.994;5.692;2023-10-31T13:29:00;13.30;99.90
22734;DHT22;11534;51.994;5.692;2023-10-31T13:31:26;13.20;99.90
22734;DHT22;11534;51.994;5.692;2023-10-31T13:33:52;13.10;99.90
22734;DHT22;11534;51.994;5.692;2023-10-31T13:36:17;13.10;99.90
22734;DHT22;11534;51.994;5.692;2023-10-31T13:38:44;13.00;99.90
22734;DHT22;11534;51.994;5.692;2023-10-31T13:41:09;13.00;99.90
22734;DHT22;11534;51.994;5.692;2023-10-31T13:43:35;13.00;99.90
22734;DHT22;11534;51.994;5.692;2023-10-31T13:46:02;13.00;99.90
22734;DHT22;11534;51.994;5.692;2023-10-31T13:48:32;12.90;99.90
22734;DHT22;11534;51.994;5.692;2023-10-31T13:51:04;12.90;99.90
22734;DHT22;11534;51.994;5.692;2023-10-31T13:53:35;12.90;99.90
22734;DHT22;11534;51.994;5.692;2023-10-31T13:56:02;12.90;99.90
22734;DHT22;11534;51.994;5.692;2023-10-31T13:58:28;12.90;99.90
22734;DHT22;11534;51.994;5.692;2023-10-31T14:00:53;12.90;99.90
22734;DHT22;11534;51.994;5.692;2023-10-31T14:03:19;12.90;99.90
22734;DHT22;11534;51.994;5.692;2023-10-31T14:05:45;12.80;99.90
22734;DHT22;11534;51.994;5.692;2023-10-31T14:08:11;12.80;99.90
22734;DHT22;11534;51.994;5.692;2023-10-31T14:10:38;12.80;99.90
22734;DHT22;11534;51.994;5.692;2023-10-31T14:13:05;12.80;99.90
22734;DHT22;11534;51.994;5.692;2023-10-31T14:15:31;12.80;99.90
22734;DHT22;11534;51.994;5.692;2023-10-31T14:17:58;12.70;99.90
22734;DHT22;11534;51.994;5.692;2023-10-31T14:20:24;12.80;99.90
22734;DHT22;11534;51.994;5.692;2023-10-31T14:22:50;12.80;99.90
22734;DHT22;11534;51.994;5.692;2023-10-31T14:25:17;12.80;99.90
22734;DHT22;11534;51.994;5.692;2023-10-31T14:27:43;12.80;99.90
22734;DHT22;11534;51.994;5.692;2023-10-31T14:30:10;12.80;99.90
22734;DHT22;11534;51.994;5.692;2023-10-31T14:32:39;12.80;99.90
22734;DHT22;11534;51.994;5.692;2023-10-31T14:35:05;12.80;99.90
22734;DHT22;11534;51.994;5.692;2023-10-31T14:37:32;12.80;99.90
22734;DHT22;11534;51.994;5.692;2023-10-31T14:39:57;12.80;99.90
22734;DHT22;11534;51.994;5.692;2023-10-31T14:42:23;12.80;99.90
22734;DHT22;11534;51.994;5.692;2023-10-31T14:44:49;12.80;99.90
22734;DHT22;11534;51.994;5.692;2023-10-31T14:47:15;12.80;99.90
22734;DHT22;11534;51.994;5.692;2023-10-31T14:49:40;12.80;99.90
22734;DHT22;11534;51.994;5.692;2023-10-31T14:52:06;12.80;99.90
22734;DHT22;11534;51.994;5.692;2023-10-31T14:54:33;12.80;99.90
22734;DHT22;11534;51.994;5.692;2023-10-31T14:57:01;12.70;99.90
22734;DHT22;11534;51.994;5.692;2023-10-31T14:59:26;12.70;99.90
22734;DHT22;11534;51.994;5.692;2023-10-31T15:01:52;12.60;99.90
22734;DHT22;11534;51.994;5.692;2023-10-31T15:04:18;12.60;99.90
22734;DHT22;11534;51.994;5.692;2023-10-31T15:06:43;12.60;99.90
22734;DHT22;11534;51.994;5.692;2023-10-31T15:09:09;12.50;99.90
22734;DHT22;11534;51.994;5.692;2023-10-31T15:11:35;12.50;99.90
22734;DHT22;11534;51.994;5.692;2023-10-31T15:14:01;12.40;99.90
22734;DHT22;11534;51.994;5.692;2023-10-31T15:16:27;12.50;99.90
22734;DHT22;11534;51.994;5.692;2023-10-31T15:18:53;12.50;99.90
22734;DHT22;11534;51.994;5.692;2023-10-31T15:21:19;12.40;99.90
22734;DHT22;11534;51.994;5.692;2023-10-31T15:23:45;12.40;99.90
22734;DHT22;11534;51.994;5.692;2023-10-31T15:26:10;12.40;99.90
22734;DHT22;11534;51.994;5.692;2023-10-31T15:28:39;12.40;99.90
22734;DHT22;11534;51.994;5.692;2023-10-31T15:31:07;12.40;99.90
22734;DHT22;11534;51.994;5.692;2023-10-31T15:33:36;12.40;99.90
22734;DHT22;11534;51.994;5.692;2023-10-31T15:36:03;12.40;99.90
22734;DHT22;11534;51.994;5.692;2023-10-31T15:38:29;12.30;99.90
22734;DHT22;11534;51.994;5.692;2023-10-31T15:40:56;12.30;99.90
22734;DHT22;11534;51.994;5.692;2023-10-31T15:43:21;12.30;99.90
22734;DHT22;11534;51.994;5.692;2023-10-31T15:45:47;12.30;99.90
22734;DHT22;11534;51.994;5.692;2023-10-31T15:48:13;12.30;99.90
22734;DHT22;11534;51.994;5.692;2023-10-31T15:50:39;12.20;99.90
22734;DHT22;11534;51.994;5.692;2023-10-31T15:53:05;12.20;99.90
22734;DHT22;11534;51.994;5.692;2023-10-31T15:55:33;12.20;99.90